Lindon, UT (84042)

3:55 AM MDT on August 21, 2014 (GMT -0600)
DW3075 | Change Station
CLOSE
Current Station
Personal Weather Station
Location: Pleasant Grove, UT
Elevation: 4632 ft
Nearby Weather Stations

Elev 4632 ft 40.36 °N, 111.73 °W | Updated 4 minutes ago

Clear
Clear
62.9 °F
Feels Like 62.9 °F
N
0.0
Wind Variable Wind from NNW
Gusts 0.0 mph

Today
High -- | Low -- °F
--% Chance of Precip.
Yesterday
High -- | Low -- °F
Precip. -- in
6:43 AM 8:15 PM
Waning Crescent, 15% visible
Pressure 30.06 in
Visibility 10.0 miles
Clouds Clear
Dew Point 54 °F
Humidity 74%
Rainfall 0.00 in
Snow Depth 1 in , 0 in
UV 0 out of 12
Pollen 7.00 out of 12
Air Quality Not available.
Flu Activity Not available.
METAR KPVU 210935Z AUTO 17003KT 10SM CLR 17/11 A3006 RMK AO1

More Conditions Fewer Conditions

Pressure 30.06 in
Visibility 10.0 miles
Clouds Clear
Dew Point 54 °F
Humidity 74%
Rainfall 0.00 in
Snow Depth 1 in , 0 in
UV 0 out of 12
Pollen 7.00 out of 12
Air Quality Not available.
Flu Activity Not available.
METAR KPVU 210935Z AUTO 17003KT 10SM CLR 17/11 A3006 RMK AO1

More Conditions Fewer Conditions

10-Day Weather Forecast

Almanac

Astronomy

Aug. 21, 2014 Rise Set
Actual Time 6:43 AM MDT 8:15 PM MDT
Civil Twilight 6:15 AM MDT 8:44 PM MDT
Nautical Twilight 5:40 AM MDT 9:18 PM MDT
Astronomical Twilight 5:03 AM MDT 9:55 PM MDT
Moon 3:17 AM MDT 5:47 PM MDT
Length of Visible Light 14h 29m
Length of Day
13h 31m
Tomorrow will be 2m 26s shorter.
Waning Crescent, 15% of the Moon is Illuminated
Today
Waning Crescent
Aug 25
New
Sep 2
First Quarter
Sep 8
Full
Sep 15
Last Quarter

Today's Extremes

State Highs State Lows

Community

WunderPhotos

Upload Photos

1,745,871 photos uploaded!

Nearby

Snow Depth

Station Depth Elevation
Cascade Mountain 1 in 7768 ft
Brighton 0 in 8750 ft
Mill-d North 0 in 8960 ft
Daniels-Strawberry 1 in 8000 ft
Rocky Basin-Settlement 0 in 8900 ft

Earthquake Activity

City Distance Mag. Time & Date
No recent earthquake activity has been reported nearby.
Minimum magnitude displayed is 2.5.

Coastal Water Temperatures

Place Temperature
No Stations Reporting

Nearby Weather Stations